sensor_id;sensor_type;location;lat;lon;timestamp;P1;durP1;ratioP1;P2;durP2;ratioP2
30707;SDS011;17458;48.958;8.284;2023-02-18T00:00:37;5.00;;;2.28;;
30707;SDS011;17458;48.958;8.284;2023-02-18T00:03:21;1.80;;;1.70;;
30707;SDS011;17458;48.958;8.284;2023-02-18T00:06:39;2.17;;;1.98;;
30707;SDS011;17458;48.958;8.284;2023-02-18T00:09:17;3.42;;;2.22;;
30707;SDS011;17458;48.958;8.284;2023-02-18T00:12:02;2.08;;;1.88;;
30707;SDS011;17458;48.958;8.284;2023-02-18T00:14:49;2.03;;;1.83;;
30707;SDS011;17458;48.958;8.284;2023-02-18T00:17:33;3.63;;;2.25;;
30707;SDS011;17458;48.958;8.284;2023-02-18T00:20:18;3.83;;;2.33;;
30707;SDS011;17458;48.958;8.284;2023-02-18T00:23:02;3.13;;;2.00;;
30707;SDS011;17458;48.958;8.284;2023-02-18T00:25:46;3.45;;;2.10;;
30707;SDS011;17458;48.958;8.284;2023-02-18T00:28:30;3.50;;;2.53;;
30707;SDS011;17458;48.958;8.284;2023-02-18T00:31:18;3.03;;;2.35;;
30707;SDS011;17458;48.958;8.284;2023-02-18T00:34:05;4.47;;;2.20;;
30707;SDS011;17458;48.958;8.284;2023-02-18T00:36:49;2.05;;;1.92;;
30707;SDS011;17458;48.958;8.284;2023-02-18T00:39:33;4.57;;;2.35;;
30707;SDS011;17458;48.958;8.284;2023-02-18T00:42:17;4.53;;;2.17;;
30707;SDS011;17458;48.958;8.284;2023-02-18T00:45:01;3.20;;;2.47;;
30707;SDS011;17458;48.958;8.284;2023-02-18T00:47:45;3.95;;;2.58;;
30707;SDS011;17458;48.958;8.284;2023-02-18T00:50:29;4.80;;;2.40;;
30707;SDS011;17458;48.958;8.284;2023-02-18T00:53:14;2.28;;;2.08;;
30707;SDS011;17458;48.958;8.284;2023-02-18T00:55:59;5.35;;;2.33;;
30707;SDS011;17458;48.958;8.284;2023-02-18T00:58:43;2.97;;;2.50;;
30707;SDS011;17458;48.958;8.284;2023-02-18T01:01:28;3.38;;;2.83;;
30707;SDS011;17458;48.958;8.284;2023-02-18T01:04:12;3.05;;;2.42;;
30707;SDS011;17458;48.958;8.284;2023-02-18T01:06:57;2.90;;;2.60;;
30707;SDS011;17458;48.958;8.284;2023-02-18T01:09:41;2.90;;;2.58;;
30707;SDS011;17458;48.958;8.284;2023-02-18T01:12:26;3.35;;;2.67;;
30707;SDS011;17458;48.958;8.284;2023-02-18T01:15:13;3.15;;;2.60;;
30707;SDS011;17458;48.958;8.284;2023-02-18T01:17:59;3.20;;;2.40;;
30707;SDS011;17458;48.958;8.284;2023-02-18T01:20:44;3.45;;;2.83;;
30707;SDS011;17458;48.958;8.284;2023-02-18T01:23:29;4.80;;;2.55;;
30707;SDS011;17458;48.958;8.284;2023-02-18T01:26:13;5.05;;;2.78;;
30707;SDS011;17458;48.958;8.284;2023-02-18T01:28:57;2.55;;;2.35;;
30707;SDS011;17458;48.958;8.284;2023-02-18T01:31:42;3.25;;;2.90;;
30707;SDS011;17458;48.958;8.284;2023-02-18T01:34:26;3.45;;;2.35;;
30707;SDS011;17458;48.958;8.284;2023-02-18T01:37:11;3.42;;;2.92;;
30707;SDS011;17458;48.958;8.284;2023-02-18T01:39:55;3.45;;;3.00;;
30707;SDS011;17458;48.958;8.284;2023-02-18T01:42:40;5.78;;;3.20;;
30707;SDS011;17458;48.958;8.284;2023-02-18T01:48:27;4.70;;;3.03;;
30707;SDS011;17458;48.958;8.284;2023-02-18T01:51:29;3.80;;;3.40;;
30707;SDS011;17458;48.958;8.284;2023-02-18T01:54:19;2.97;;;2.70;;
30707;SDS011;17458;48.958;8.284;2023-02-18T01:57:15;3.20;;;2.90;;
30707;SDS011;17458;48.958;8.284;2023-02-18T02:03:04;4.10;;;3.53;;
30707;SDS011;17458;48.958;8.284;2023-02-18T02:05:51;3.63;;;3.33;;
30707;SDS011;17458;48.958;8.284;2023-02-18T02:08:35;4.25;;;3.60;;
30707;SDS011;17458;48.958;8.284;2023-02-18T02:14:39;4.35;;;3.10;;
30707;SDS011;17458;48.958;8.284;2023-02-18T02:21:28;5.80;;;3.97;;
30707;SDS011;17458;48.958;8.284;2023-02-18T02:24:23;3.83;;;3.47;;
30707;SDS011;17458;48.958;8.284;2023-02-18T02:42:12;6.55;;;3.88;;
30707;SDS011;17458;48.958;8.284;2023-02-18T02:45:42;5.10;;;3.63;;
30707;SDS011;17458;48.958;8.284;2023-02-18T02:48:34;3.97;;;3.60;;
30707;SDS011;17458;48.958;8.284;2023-02-18T02:51:41;4.68;;;4.07;;
30707;SDS011;17458;48.958;8.284;2023-02-18T02:54:38;5.22;;;3.30;;
30707;SDS011;17458;48.958;8.284;2023-02-18T03:00:17;6.05;;;3.95;;
30707;SDS011;17458;48.958;8.284;2023-02-18T03:19:09;4.95;;;3.50;;
30707;SDS011;17458;48.958;8.284;2023-02-18T03:22:10;5.18;;;4.22;;
30707;SDS011;17458;48.958;8.284;2023-02-18T03:25:01;7.55;;;3.92;;
30707;SDS011;17458;48.958;8.284;2023-02-18T03:28:06;6.78;;;3.95;;
30707;SDS011;17458;48.958;8.284;2023-02-18T03:30:55;4.65;;;3.50;;
30707;SDS011;17458;48.958;8.284;2023-02-18T03:36:50;4.93;;;3.63;;
30707;SDS011;17458;48.958;8.284;2023-02-18T03:39:36;14.52;;;3.85;;
30707;SDS011;17458;48.958;8.284;2023-02-18T03:42:25;4.13;;;3.72;;
30707;SDS011;17458;48.958;8.284;2023-02-18T03:45:10;3.38;;;3.05;;
30707;SDS011;17458;48.958;8.284;2023-02-18T03:47:54;4.43;;;3.58;;
30707;SDS011;17458;48.958;8.284;2023-02-18T03:50:41;6.13;;;3.08;;
30707;SDS011;17458;48.958;8.284;2023-02-18T03:53:25;6.18;;;3.28;;
30707;SDS011;17458;48.958;8.284;2023-02-18T03:56:09;4.45;;;3.63;;
30707;SDS011;17458;48.958;8.284;2023-02-18T03:58:53;5.47;;;3.60;;
30707;SDS011;17458;48.958;8.284;2023-02-18T04:01:37;5.03;;;2.97;;
30707;SDS011;17458;48.958;8.284;2023-02-18T04:04:21;3.90;;;3.15;;
30707;SDS011;17458;48.958;8.284;2023-02-18T04:07:05;8.88;;;3.55;;
30707;SDS011;17458;48.958;8.284;2023-02-18T04:09:49;4.30;;;3.35;;
30707;SDS011;17458;48.958;8.284;2023-02-18T04:12:33;3.20;;;2.90;;
30707;SDS011;17458;48.958;8.284;2023-02-18T04:15:17;3.88;;;3.33;;
30707;SDS011;17458;48.958;8.284;2023-02-18T04:18:01;3.15;;;2.88;;
30707;SDS011;17458;48.958;8.284;2023-02-18T04:20:45;3.50;;;3.05;;
30707;SDS011;17458;48.958;8.284;2023-02-18T04:23:29;4.65;;;3.25;;
30707;SDS011;17458;48.958;8.284;2023-02-18T04:26:13;6.78;;;3.60;;
30707;SDS011;17458;48.958;8.284;2023-02-18T04:28:56;3.65;;;3.20;;
30707;SDS011;17458;48.958;8.284;2023-02-18T04:31:41;3.63;;;2.80;;
30707;SDS011;17458;48.958;8.284;2023-02-18T04:34:25;3.92;;;2.70;;
30707;SDS011;17458;48.958;8.284;2023-02-18T04:37:09;3.53;;;3.15;;
30707;SDS011;17458;48.958;8.284;2023-02-18T04:39:52;4.82;;;3.50;;
30707;SDS011;17458;48.958;8.284;2023-02-18T04:42:36;5.43;;;3.25;;
30707;SDS011;17458;48.958;8.284;2023-02-18T04:45:20;3.17;;;2.65;;
30707;SDS011;17458;48.958;8.284;2023-02-18T04:48:04;3.00;;;2.75;;
30707;SDS011;17458;48.958;8.284;2023-02-18T04:50:48;3.70;;;3.40;;
30707;SDS011;17458;48.958;8.284;2023-02-18T04:53:32;4.75;;;3.30;;
30707;SDS011;17458;48.958;8.284;2023-02-18T04:56:16;3.92;;;2.83;;
30707;SDS011;17458;48.958;8.284;2023-02-18T04:59:00;3.92;;;2.80;;
30707;SDS011;17458;48.958;8.284;2023-02-18T05:01:44;6.00;;;2.90;;
30707;SDS011;17458;48.958;8.284;2023-02-18T05:04:28;3.80;;;3.17;;
30707;SDS011;17458;48.958;8.284;2023-02-18T05:07:12;3.42;;;2.75;;
30707;SDS011;17458;48.958;8.284;2023-02-18T05:09:56;3.38;;;3.08;;
30707;SDS011;17458;48.958;8.284;2023-02-18T05:12:40;3.30;;;2.92;;
30707;SDS011;17458;48.958;8.284;2023-02-18T05:15:23;3.00;;;2.58;;
30707;SDS011;17458;48.958;8.284;2023-02-18T05:18:08;3.47;;;2.80;;
30707;SDS011;17458;48.958;8.284;2023-02-18T05:20:52;4.28;;;2.78;;
30707;SDS011;17458;48.958;8.284;2023-02-18T05:23:36;4.10;;;3.10;;
30707;SDS011;17458;48.958;8.284;2023-02-18T05:26:20;3.63;;;2.97;;
30707;SDS011;17458;48.958;8.284;2023-02-18T05:29:04;3.40;;;2.95;;
30707;SDS011;17458;48.958;8.284;2023-02-18T05:31:48;3.35;;;2.55;;
30707;SDS011;17458;48.958;8.284;2023-02-18T05:34:32;3.35;;;3.05;;
30707;SDS011;17458;48.958;8.284;2023-02-18T05:37:16;2.85;;;2.40;;
30707;SDS011;17458;48.958;8.284;2023-02-18T05:40:01;2.55;;;2.30;;
30707;SDS011;17458;48.958;8.284;2023-02-18T05:42:46;3.67;;;2.83;;
30707;SDS011;17458;48.958;8.284;2023-02-18T05:45:30;3.83;;;3.17;;
30707;SDS011;17458;48.958;8.284;2023-02-18T05:48:14;6.38;;;2.92;;
30707;SDS011;17458;48.958;8.284;2023-02-18T05:50:58;4.18;;;2.60;;
30707;SDS011;17458;48.958;8.284;2023-02-18T05:53:42;3.55;;;2.50;;
30707;SDS011;17458;48.958;8.284;2023-02-18T05:56:26;3.55;;;2.85;;
30707;SDS011;17458;48.958;8.284;2023-02-18T05:59:10;3.42;;;2.90;;
30707;SDS011;17458;48.958;8.284;2023-02-18T06:01:54;3.38;;;2.20;;
30707;SDS011;17458;48.958;8.284;2023-02-18T06:04:38;2.97;;;2.40;;
30707;SDS011;17458;48.958;8.284;2023-02-18T06:07:23;2.63;;;2.30;;
30707;SDS011;17458;48.958;8.284;2023-02-18T06:10:08;3.30;;;2.35;;
30707;SDS011;17458;48.958;8.284;2023-02-18T06:12:52;2.70;;;2.50;;
30707;SDS011;17458;48.958;8.284;2023-02-18T06:15:36;4.25;;;2.67;;
30707;SDS011;17458;48.958;8.284;2023-02-18T06:18:21;4.22;;;2.25;;
30707;SDS011;17458;48.958;8.284;2023-02-18T06:21:05;2.65;;;2.45;;
30707;SDS011;17458;48.958;8.284;2023-02-18T06:23:49;2.60;;;2.40;;
30707;SDS011;17458;48.958;8.284;2023-02-18T06:26:33;3.35;;;3.03;;
30707;SDS011;17458;48.958;8.284;2023-02-18T06:29:18;3.20;;;2.30;;
30707;SDS011;17458;48.958;8.284;2023-02-18T06:32:02;3.67;;;2.70;;
30707;SDS011;17458;48.958;8.284;2023-02-18T06:34:47;2.60;;;2.15;;
30707;SDS011;17458;48.958;8.284;2023-02-18T06:37:30;5.28;;;2.60;;
30707;SDS011;17458;48.958;8.284;2023-02-18T06:40:15;3.78;;;2.85;;
30707;SDS011;17458;48.958;8.284;2023-02-18T06:43:01;4.72;;;2.20;;
30707;SDS011;17458;48.958;8.284;2023-02-18T06:45:45;3.00;;;2.42;;
30707;SDS011;17458;48.958;8.284;2023-02-18T06:48:29;8.18;;;2.72;;
30707;SDS011;17458;48.958;8.284;2023-02-18T06:51:13;3.05;;;2.40;;
30707;SDS011;17458;48.958;8.284;2023-02-18T06:53:58;2.75;;;2.45;;
30707;SDS011;17458;48.958;8.284;2023-02-18T06:56:42;2.50;;;2.30;;
30707;SDS011;17458;48.958;8.284;2023-02-18T06:59:27;2.63;;;2.42;;
30707;SDS011;17458;48.958;8.284;2023-02-18T07:02:14;2.30;;;2.10;;
30707;SDS011;17458;48.958;8.284;2023-02-18T07:04:58;2.60;;;2.33;;
30707;SDS011;17458;48.958;8.284;2023-02-18T07:07:42;5.18;;;2.70;;
30707;SDS011;17458;48.958;8.284;2023-02-18T07:10:26;2.40;;;2.20;;
30707;SDS011;17458;48.958;8.284;2023-02-18T07:13:10;2.15;;;2.03;;
30707;SDS011;17458;48.958;8.284;2023-02-18T07:15:54;2.25;;;1.85;;
30707;SDS011;17458;48.958;8.284;2023-02-18T07:18:38;2.63;;;1.95;;
30707;SDS011;17458;48.958;8.284;2023-02-18T07:21:22;2.33;;;2.05;;
30707;SDS011;17458;48.958;8.284;2023-02-18T07:24:06;2.58;;;2.30;;
30707;SDS011;17458;48.958;8.284;2023-02-18T07:26:50;3.22;;;2.22;;
30707;SDS011;17458;48.958;8.284;2023-02-18T07:29:34;2.92;;;2.50;;
30707;SDS011;17458;48.958;8.284;2023-02-18T07:32:18;4.32;;;2.35;;
30707;SDS011;17458;48.958;8.284;2023-02-18T07:35:03;2.53;;;2.33;;
30707;SDS011;17458;48.958;8.284;2023-02-18T07:37:48;2.55;;;1.98;;
30707;SDS011;17458;48.958;8.284;2023-02-18T07:40:33;3.38;;;2.35;;
30707;SDS011;17458;48.958;8.284;2023-02-18T07:43:17;2.97;;;2.15;;
30707;SDS011;17458;48.958;8.284;2023-02-18T07:46:04;5.70;;;2.80;;
30707;SDS011;17458;48.958;8.284;2023-02-18T07:48:49;3.30;;;2.42;;
30707;SDS011;17458;48.958;8.284;2023-02-18T07:51:33;2.97;;;2.20;;
30707;SDS011;17458;48.958;8.284;2023-02-18T07:54:17;2.55;;;1.83;;
30707;SDS011;17458;48.958;8.284;2023-02-18T07:57:02;3.28;;;2.53;;
30707;SDS011;17458;48.958;8.284;2023-02-18T07:59:46;3.20;;;2.30;;
30707;SDS011;17458;48.958;8.284;2023-02-18T08:02:30;3.92;;;2.55;;
30707;SDS011;17458;48.958;8.284;2023-02-18T08:05:14;2.38;;;2.00;;
30707;SDS011;17458;48.958;8.284;2023-02-18T08:07:58;4.25;;;2.70;;
30707;SDS011;17458;48.958;8.284;2023-02-18T08:10:43;3.30;;;2.63;;
30707;SDS011;17458;48.958;8.284;2023-02-18T08:13:27;3.47;;;2.80;;
30707;SDS011;17458;48.958;8.284;2023-02-18T08:16:12;2.47;;;2.13;;
30707;SDS011;17458;48.958;8.284;2023-02-18T08:18:57;2.28;;;2.03;;
30707;SDS011;17458;48.958;8.284;2023-02-18T08:21:42;3.30;;;2.13;;
30707;SDS011;17458;48.958;8.284;2023-02-18T08:24:26;4.32;;;2.20;;
30707;SDS011;17458;48.958;8.284;2023-02-18T08:27:11;5.80;;;2.65;;
30707;SDS011;17458;48.958;8.284;2023-02-18T08:29:56;3.70;;;2.22;;
30707;SDS011;17458;48.958;8.284;2023-02-18T08:32:40;2.45;;;1.92;;
30707;SDS011;17458;48.958;8.284;2023-02-18T08:35:24;1.95;;;1.70;;
30707;SDS011;17458;48.958;8.284;2023-02-18T08:38:08;3.83;;;2.00;;
30707;SDS011;17458;48.958;8.284;2023-02-18T08:40:59;2.65;;;2.05;;
30707;SDS011;17458;48.958;8.284;2023-02-18T08:43:47;2.63;;;2.42;;
30707;SDS011;17458;48.958;8.284;2023-02-18T08:46:31;3.08;;;2.10;;
30707;SDS011;17458;48.958;8.284;2023-02-18T08:49:15;3.75;;;2.38;;
30707;SDS011;17458;48.958;8.284;2023-02-18T08:52:00;2.88;;;2.10;;
30707;SDS011;17458;48.958;8.284;2023-02-18T08:54:43;2.28;;;2.08;;
30707;SDS011;17458;48.958;8.284;2023-02-18T08:57:29;2.97;;;2.00;;
30707;SDS011;17458;48.958;8.284;2023-02-18T09:00:14;2.17;;;2.00;;
30707;SDS011;17458;48.958;8.284;2023-02-18T09:02:59;6.68;;;2.33;;
30707;SDS011;17458;48.958;8.284;2023-02-18T09:05:44;3.20;;;2.50;;
30707;SDS011;17458;48.958;8.284;2023-02-18T09:08:28;3.75;;;1.83;;
30707;SDS011;17458;48.958;8.284;2023-02-18T09:11:12;2.13;;;1.92;;
30707;SDS011;17458;48.958;8.284;2023-02-18T09:13:57;1.85;;;1.75;;
30707;SDS011;17458;48.958;8.284;2023-02-18T09:16:41;2.50;;;2.00;;
30707;SDS011;17458;48.958;8.284;2023-02-18T09:19:26;3.05;;;1.80;;
30707;SDS011;17458;48.958;8.284;2023-02-18T09:22:10;2.72;;;2.08;;
30707;SDS011;17458;48.958;8.284;2023-02-18T09:24:55;2.63;;;2.03;;
30707;SDS011;17458;48.958;8.284;2023-02-18T09:27:39;2.08;;;1.83;;
30707;SDS011;17458;48.958;8.284;2023-02-18T09:30:23;5.03;;;2.00;;
30707;SDS011;17458;48.958;8.284;2023-02-18T09:33:07;3.03;;;1.77;;
30707;SDS011;17458;48.958;8.284;2023-02-18T09:35:51;2.53;;;1.90;;
30707;SDS011;17458;48.958;8.284;2023-02-18T09:38:35;3.88;;;2.25;;
30707;SDS011;17458;48.958;8.284;2023-02-18T09:41:33;3.53;;;1.80;;
30707;SDS011;17458;48.958;8.284;2023-02-18T09:44:28;3.05;;;1.70;;
30707;SDS011;17458;48.958;8.284;2023-02-18T09:47:29;4.05;;;2.05;;
30707;SDS011;17458;48.958;8.284;2023-02-18T09:50:21;2.33;;;2.03;;
30707;SDS011;17458;48.958;8.284;2023-02-18T09:53:09;2.72;;;2.03;;
30707;SDS011;17458;48.958;8.284;2023-02-18T09:55:56;2.17;;;1.98;;
30707;SDS011;17458;48.958;8.284;2023-02-18T09:58:42;1.75;;;1.63;;
30707;SDS011;17458;48.958;8.284;2023-02-18T10:01:29;4.30;;;1.95;;
30707;SDS011;17458;48.958;8.284;2023-02-18T10:04:22;2.63;;;1.92;;
30707;SDS011;17458;48.958;8.284;2023-02-18T10:07:34;2.83;;;1.77;;
30707;SDS011;17458;48.958;8.284;2023-02-18T10:10:20;2.53;;;1.73;;
30707;SDS011;17458;48.958;8.284;2023-02-18T10:13:24;2.85;;;1.98;;
30707;SDS011;17458;48.958;8.284;2023-02-18T10:16:14;2.38;;;2.03;;
30707;SDS011;17458;48.958;8.284;2023-02-18T10:19:03;2.35;;;2.10;;
30707;SDS011;17458;48.958;8.284;2023-02-18T10:21:56;1.55;;;1.45;;
30707;SDS011;17458;48.958;8.284;2023-02-18T10:27:39;2.17;;;1.95;;
30707;SDS011;17458;48.958;8.284;2023-02-18T10:33:20;2.42;;;2.08;;
30707;SDS011;17458;48.958;8.284;2023-02-18T10:39:42;2.70;;;2.33;;
30707;SDS011;17458;48.958;8.284;2023-02-18T10:46:20;4.32;;;2.17;;
30707;SDS011;17458;48.958;8.284;2023-02-18T10:51:55;2.47;;;2.15;;
30707;SDS011;17458;48.958;8.284;2023-02-18T10:54:49;2.95;;;2.10;;
30707;SDS011;17458;48.958;8.284;2023-02-18T10:57:47;3.92;;;2.30;;
30707;SDS011;17458;48.958;8.284;2023-02-18T11:00:34;3.53;;;1.98;;
30707;SDS011;17458;48.958;8.284;2023-02-18T11:03:23;2.45;;;2.00;;
30707;SDS011;17458;48.958;8.284;2023-02-18T11:06:19;6.80;;;2.47;;
30707;SDS011;17458;48.958;8.284;2023-02-18T11:09:15;3.45;;;2.47;;
30707;SDS011;17458;48.958;8.284;2023-02-18T11:17:54;2.92;;;2.50;;
30707;SDS011;17458;48.958;8.284;2023-02-18T11:20:40;3.60;;;2.45;;
30707;SDS011;17458;48.958;8.284;2023-02-18T11:23:27;2.75;;;1.90;;
30707;SDS011;17458;48.958;8.284;2023-02-18T11:26:11;1.65;;;1.55;;
30707;SDS011;17458;48.958;8.284;2023-02-18T11:29:02;3.25;;;2.60;;
30707;SDS011;17458;48.958;8.284;2023-02-18T11:31:51;4.60;;;2.83;;
30707;SDS011;17458;48.958;8.284;2023-02-18T11:34:39;3.65;;;2.38;;
30707;SDS011;17458;48.958;8.284;2023-02-18T11:37:26;2.83;;;1.92;;
30707;SDS011;17458;48.958;8.284;2023-02-18T11:40:30;2.15;;;1.73;;
30707;SDS011;17458;48.958;8.284;2023-02-18T11:43:16;13.05;;;2.00;;
30707;SDS011;17458;48.958;8.284;2023-02-18T11:48:54;3.40;;;2.03;;
30707;SDS011;17458;48.958;8.284;2023-02-18T11:51:39;7.65;;;2.30;;
30707;SDS011;17458;48.958;8.284;2023-02-18T11:54:27;2.65;;;2.08;;
30707;SDS011;17458;48.958;8.284;2023-02-18T11:57:14;5.50;;;2.30;;
30707;SDS011;17458;48.958;8.284;2023-02-18T12:00:00;5.82;;;2.42;;
30707;SDS011;17458;48.958;8.284;2023-02-18T12:02:45;2.78;;;2.42;;
30707;SDS011;17458;48.958;8.284;2023-02-18T12:05:30;3.58;;;2.75;;
30707;SDS011;17458;48.958;8.284;2023-02-18T12:08:23;3.40;;;2.78;;
30707;SDS011;17458;48.958;8.284;2023-02-18T12:11:11;3.55;;;2.60;;
30707;SDS011;17458;48.958;8.284;2023-02-18T12:14:08;2.92;;;2.30;;
30707;SDS011;17458;48.958;8.284;2023-02-18T12:23:24;4.70;;;2.67;;
30707;SDS011;17458;48.958;8.284;2023-02-18T12:29:31;3.08;;;2.78;;
30707;SDS011;17458;48.958;8.284;2023-02-18T12:32:31;4.63;;;3.13;;
30707;SDS011;17458;48.958;8.284;2023-02-18T12:35:40;3.40;;;2.88;;
30707;SDS011;17458;48.958;8.284;2023-02-18T12:48:29;7.20;;;2.83;;
30707;SDS011;17458;48.958;8.284;2023-02-18T12:54:41;4.70;;;2.80;;
30707;SDS011;17458;48.958;8.284;2023-02-18T13:04:00;3.05;;;2.40;;
30707;SDS011;17458;48.958;8.284;2023-02-18T13:12:54;4.80;;;3.55;;
30707;SDS011;17458;48.958;8.284;2023-02-18T13:16:03;3.13;;;2.55;;
30707;SDS011;17458;48.958;8.284;2023-02-18T13:22:09;6.70;;;2.60;;
30707;SDS011;17458;48.958;8.284;2023-02-18T13:24:57;6.45;;;2.63;;
30707;SDS011;17458;48.958;8.284;2023-02-18T13:31:10;2.90;;;2.58;;
30707;SDS011;17458;48.958;8.284;2023-02-18T13:34:07;3.40;;;1.88;;
30707;SDS011;17458;48.958;8.284;2023-02-18T13:40:18;5.28;;;2.88;;
30707;SDS011;17458;48.958;8.284;2023-02-18T13:43:49;1.75;;;1.65;;
30707;SDS011;17458;48.958;8.284;2023-02-18T13:46:20;2.25;;;2.00;;
30707;SDS011;17458;48.958;8.284;2023-02-18T13:49:06;2.67;;;1.80;;
30707;SDS011;17458;48.958;8.284;2023-02-18T13:51:56;5.05;;;2.47;;
30707;SDS011;17458;48.958;8.284;2023-02-18T13:54:43;2.22;;;1.77;;
30707;SDS011;17458;48.958;8.284;2023-02-18T13:57:29;3.45;;;1.65;;
30707;SDS011;17458;48.958;8.284;2023-02-18T14:00:24;3.42;;;1.92;;
30707;SDS011;17458;48.958;8.284;2023-02-18T14:03:19;4.15;;;1.60;;
30707;SDS011;17458;48.958;8.284;2023-02-18T14:06:25;1.40;;;1.33;;
30707;SDS011;17458;48.958;8.284;2023-02-18T14:11:59;1.88;;;1.58;;
30707;SDS011;17458;48.958;8.284;2023-02-18T14:18:22;2.00;;;1.80;;
30707;SDS011;17458;48.958;8.284;2023-02-18T14:23:57;2.83;;;1.77;;
30707;SDS011;17458;48.958;8.284;2023-02-18T14:26:47;1.80;;;1.58;;
30707;SDS011;17458;48.958;8.284;2023-02-18T14:29:33;5.57;;;1.70;;
30707;SDS011;17458;48.958;8.284;2023-02-18T14:32:18;2.28;;;1.40;;
30707;SDS011;17458;48.958;8.284;2023-02-18T14:40:57;1.77;;;1.60;;
30707;SDS011;17458;48.958;8.284;2023-02-18T14:50:12;1.50;;;1.40;;
30707;SDS011;17458;48.958;8.284;2023-02-18T14:53:03;1.55;;;1.30;;
30707;SDS011;17458;48.958;8.284;2023-02-18T14:55:50;2.97;;;1.50;;
30707;SDS011;17458;48.958;8.284;2023-02-18T14:58:42;1.98;;;1.50;;
30707;SDS011;17458;48.958;8.284;2023-02-18T15:01:32;1.67;;;1.30;;
30707;SDS011;17458;48.958;8.284;2023-02-18T15:04:24;6.05;;;2.20;;
30707;SDS011;17458;48.958;8.284;2023-02-18T15:07:17;1.60;;;1.50;;
30707;SDS011;17458;48.958;8.284;2023-02-18T15:10:03;1.52;;;1.42;;
30707;SDS011;17458;48.958;8.284;2023-02-18T15:12:47;1.65;;;1.50;;
30707;SDS011;17458;48.958;8.284;2023-02-18T15:15:31;3.08;;;1.58;;
30707;SDS011;17458;48.958;8.284;2023-02-18T15:18:29;1.60;;;1.50;;
30707;SDS011;17458;48.958;8.284;2023-02-18T15:24:31;1.92;;;1.70;;
30707;SDS011;17458;48.958;8.284;2023-02-18T15:27:19;2.65;;;2.10;;
30707;SDS011;17458;48.958;8.284;2023-02-18T15:30:20;2.10;;;1.55;;
30707;SDS011;17458;48.958;8.284;2023-02-18T15:33:13;1.65;;;1.55;;
30707;SDS011;17458;48.958;8.284;2023-02-18T15:36:04;2.42;;;2.10;;
30707;SDS011;17458;48.958;8.284;2023-02-18T15:38:49;3.78;;;1.70;;
30707;SDS011;17458;48.958;8.284;2023-02-18T15:41:33;1.95;;;1.60;;
30707;SDS011;17458;48.958;8.284;2023-02-18T15:44:21;1.90;;;1.60;;
30707;SDS011;17458;48.958;8.284;2023-02-18T15:47:08;2.30;;;2.10;;
30707;SDS011;17458;48.958;8.284;2023-02-18T15:49:53;1.60;;;1.50;;
30707;SDS011;17458;48.958;8.284;2023-02-18T15:52:40;2.75;;;1.88;;
30707;SDS011;17458;48.958;8.284;2023-02-18T15:55:26;1.92;;;1.67;;
30707;SDS011;17458;48.958;8.284;2023-02-18T16:01:23;3.17;;;2.08;;
30707;SDS011;17458;48.958;8.284;2023-02-18T16:04:12;3.35;;;2.50;;
30707;SDS011;17458;48.958;8.284;2023-02-18T16:07:14;2.90;;;2.22;;
30707;SDS011;17458;48.958;8.284;2023-02-18T16:10:12;3.17;;;1.85;;
30707;SDS011;17458;48.958;8.284;2023-02-18T16:13:00;2.47;;;2.28;;
30707;SDS011;17458;48.958;8.284;2023-02-18T16:15:47;2.33;;;2.13;;
30707;SDS011;17458;48.958;8.284;2023-02-18T16:21:23;5.30;;;2.53;;
30707;SDS011;17458;48.958;8.284;2023-02-18T16:24:39;2.67;;;2.08;;
30707;SDS011;17458;48.958;8.284;2023-02-18T16:27:31;3.08;;;2.30;;
30707;SDS011;17458;48.958;8.284;2023-02-18T16:33:07;6.60;;;2.58;;
30707;SDS011;17458;48.958;8.284;2023-02-18T16:35:51;7.93;;;2.92;;
30707;SDS011;17458;48.958;8.284;2023-02-18T16:38:36;2.72;;;2.40;;
30707;SDS011;17458;48.958;8.284;2023-02-18T16:41:30;2.53;;;2.20;;
30707;SDS011;17458;48.958;8.284;2023-02-18T16:44:14;2.78;;;2.20;;
30707;SDS011;17458;48.958;8.284;2023-02-18T16:46:59;3.60;;;2.20;;
30707;SDS011;17458;48.958;8.284;2023-02-18T16:49:44;3.65;;;3.00;;
30707;SDS011;17458;48.958;8.284;2023-02-18T16:52:31;3.03;;;2.45;;
30707;SDS011;17458;48.958;8.284;2023-02-18T16:55:17;3.38;;;2.92;;
30707;SDS011;17458;48.958;8.284;2023-02-18T16:58:03;5.53;;;2.45;;
30707;SDS011;17458;48.958;8.284;2023-02-18T17:00:48;2.33;;;2.10;;
30707;SDS011;17458;48.958;8.284;2023-02-18T17:03:39;3.92;;;2.58;;
30707;SDS011;17458;48.958;8.284;2023-02-18T17:06:29;7.50;;;3.13;;
30707;SDS011;17458;48.958;8.284;2023-02-18T17:09:14;8.05;;;3.60;;
30707;SDS011;17458;48.958;8.284;2023-02-18T17:11:59;3.50;;;3.17;;
30707;SDS011;17458;48.958;8.284;2023-02-18T17:14:45;5.03;;;2.60;;
30707;SDS011;17458;48.958;8.284;2023-02-18T17:17:29;2.70;;;2.50;;
30707;SDS011;17458;48.958;8.284;2023-02-18T17:20:14;3.45;;;3.15;;
30707;SDS011;17458;48.958;8.284;2023-02-18T17:22:59;3.60;;;2.83;;
30707;SDS011;17458;48.958;8.284;2023-02-18T17:25:44;4.70;;;3.00;;
30707;SDS011;17458;48.958;8.284;2023-02-18T17:28:28;3.20;;;2.90;;
30707;SDS011;17458;48.958;8.284;2023-02-18T17:31:18;3.72;;;2.67;;
30707;SDS011;17458;48.958;8.284;2023-02-18T17:34:06;4.40;;;3.20;;
30707;SDS011;17458;48.958;8.284;2023-02-18T17:36:52;3.00;;;2.75;;
30707;SDS011;17458;48.958;8.284;2023-02-18T17:39:37;3.60;;;2.90;;
30707;SDS011;17458;48.958;8.284;2023-02-18T17:42:21;2.78;;;2.30;;
30707;SDS011;17458;48.958;8.284;2023-02-18T17:45:16;7.88;;;2.80;;
30707;SDS011;17458;48.958;8.284;2023-02-18T17:48:01;3.58;;;2.80;;
30707;SDS011;17458;48.958;8.284;2023-02-18T17:50:48;3.80;;;3.08;;
30707;SDS011;17458;48.958;8.284;2023-02-18T17:53:33;3.50;;;2.97;;
30707;SDS011;17458;48.958;8.284;2023-02-18T17:56:18;3.33;;;2.83;;
30707;SDS011;17458;48.958;8.284;2023-02-18T17:59:02;3.88;;;3.58;;
30707;SDS011;17458;48.958;8.284;2023-02-18T18:01:47;4.72;;;3.40;;
30707;SDS011;17458;48.958;8.284;2023-02-18T18:04:34;2.72;;;2.42;;
30707;SDS011;17458;48.958;8.284;2023-02-18T18:07:18;2.78;;;2.58;;
30707;SDS011;17458;48.958;8.284;2023-02-18T18:10:02;3.67;;;3.00;;
30707;SDS011;17458;48.958;8.284;2023-02-18T18:12:46;6.25;;;3.53;;
30707;SDS011;17458;48.958;8.284;2023-02-18T18:15:35;3.00;;;2.70;;
30707;SDS011;17458;48.958;8.284;2023-02-18T18:18:22;3.05;;;2.72;;
30707;SDS011;17458;48.958;8.284;2023-02-18T18:21:14;3.65;;;3.22;;
30707;SDS011;17458;48.958;8.284;2023-02-18T18:24:04;3.70;;;2.95;;
30707;SDS011;17458;48.958;8.284;2023-02-18T18:26:56;3.13;;;2.90;;
30707;SDS011;17458;48.958;8.284;2023-02-18T18:29:41;2.53;;;2.33;;
30707;SDS011;17458;48.958;8.284;2023-02-18T18:32:25;2.83;;;2.53;;
30707;SDS011;17458;48.958;8.284;2023-02-18T18:35:24;2.88;;;2.33;;
30707;SDS011;17458;48.958;8.284;2023-02-18T18:38:16;3.33;;;2.95;;
30707;SDS011;17458;48.958;8.284;2023-02-18T18:41:01;3.85;;;2.70;;
30707;SDS011;17458;48.958;8.284;2023-02-18T18:43:55;3.35;;;3.05;;
30707;SDS011;17458;48.958;8.284;2023-02-18T18:46:39;3.78;;;2.70;;
30707;SDS011;17458;48.958;8.284;2023-02-18T18:49:26;4.25;;;2.72;;
30707;SDS011;17458;48.958;8.284;2023-02-18T18:52:11;2.88;;;2.67;;
30707;SDS011;17458;48.958;8.284;2023-02-18T18:55:02;3.30;;;3.00;;
30707;SDS011;17458;48.958;8.284;2023-02-18T18:57:46;4.13;;;2.90;;
30707;SDS011;17458;48.958;8.284;2023-02-18T19:00:38;4.18;;;3.47;;
30707;SDS011;17458;48.958;8.284;2023-02-18T19:03:27;4.22;;;2.97;;
30707;SDS011;17458;48.958;8.284;2023-02-18T19:06:12;3.40;;;3.10;;
30707;SDS011;17458;48.958;8.284;2023-02-18T19:08:59;3.03;;;2.70;;
30707;SDS011;17458;48.958;8.284;2023-02-18T19:11:43;3.75;;;3.00;;
30707;SDS011;17458;48.958;8.284;2023-02-18T19:14:27;6.10;;;3.65;;
30707;SDS011;17458;48.958;8.284;2023-02-18T19:17:11;3.03;;;2.72;;
30707;SDS011;17458;48.958;8.284;2023-02-18T19:19:55;2.90;;;2.67;;
30707;SDS011;17458;48.958;8.284;2023-02-18T19:22:39;2.88;;;2.63;;